createdAt,value
2022-08-04T00:02:04.910Z,99.50
2022-08-04T00:04:36.428Z,99.60
2022-08-04T00:07:10.105Z,99.70
2022-08-04T00:09:45.067Z,99.80
2022-08-04T00:12:13.629Z,99.90
2022-08-04T00:14:48.751Z,99.90
2022-08-04T00:17:20.254Z,99.70
2022-08-04T00:19:54.277Z,99.90
2022-08-04T00:22:27.782Z,99.90
2022-08-04T00:24:58.206Z,99.90
2022-08-04T00:27:26.029Z,99.90
2022-08-04T00:29:54.210Z,99.90
2022-08-04T00:32:33.979Z,99.90
2022-08-04T00:35:03.558Z,99.90
2022-08-04T00:37:32.947Z,99.90
2022-08-04T00:40:03.260Z,99.90
2022-08-04T00:42:49.458Z,99.90
2022-08-04T00:46:15.265Z,99.90
2022-08-04T00:49:18.093Z,99.90
2022-08-04T00:52:31.603Z,99.90
2022-08-04T00:54:51.893Z,99.90
2022-08-04T00:57:34.514Z,99.90
2022-08-04T01:00:19.406Z,99.90
2022-08-04T01:03:07.443Z,99.90
2022-08-04T01:05:47.527Z,99.90
2022-08-04T01:08:40.693Z,99.90
2022-08-04T01:11:22.420Z,99.90
2022-08-04T01:14:18.000Z,99.90
2022-08-04T01:16:50.797Z,99.90
2022-08-04T01:19:42.578Z,99.90
2022-08-04T01:22:25.780Z,99.90
2022-08-04T01:25:12.169Z,99.90
2022-08-04T01:28:01.402Z,99.90
2022-08-04T01:30:33.604Z,99.90
2022-08-04T01:33:04.724Z,99.90
2022-08-04T01:35:46.996Z,99.90
2022-08-04T01:38:21.775Z,99.90
2022-08-04T01:40:53.447Z,99.90
2022-08-04T01:43:21.772Z,99.90
2022-08-04T01:45:57.753Z,99.90
2022-08-04T01:48:27.334Z,99.90
2022-08-04T01:51:04.101Z,99.90
2022-08-04T01:53:34.144Z,99.90
2022-08-04T01:56:03.966Z,99.90
2022-08-04T01:58:33.945Z,99.90
2022-08-04T02:01:08.948Z,99.90
2022-08-04T02:04:21.553Z,99.90
2022-08-04T02:06:33.524Z,99.90
2022-08-04T02:09:10.925Z,99.90
2022-08-04T02:11:42.246Z,99.90
2022-08-04T02:14:39.194Z,99.90
2022-08-04T02:17:12.926Z,99.90
2022-08-04T02:19:57.236Z,99.90
2022-08-04T02:22:28.046Z,99.90
2022-08-04T02:25:02.564Z,99.90
2022-08-04T02:27:59.780Z,99.90
2022-08-04T02:30:34.089Z,99.90
2022-08-04T02:33:05.284Z,99.90
2022-08-04T02:35:39.000Z,99.90
2022-08-04T02:38:13.789Z,99.90
2022-08-04T02:40:43.119Z,99.90
2022-08-04T02:43:11.564Z,99.90
2022-08-04T02:45:43.322Z,99.90
2022-08-04T02:48:30.481Z,99.90
2022-08-04T02:51:02.188Z,99.90
2022-08-04T02:53:31.686Z,99.90
2022-08-04T02:56:01.657Z,99.90
2022-08-04T02:58:35.265Z,99.90
2022-08-04T03:01:03.285Z,99.90
2022-08-04T03:03:40.198Z,99.90
2022-08-04T03:06:45.046Z,99.90
2022-08-04T03:09:48.328Z,99.90
2022-08-04T03:12:49.659Z,99.90
2022-08-04T03:16:05.142Z,99.90
2022-08-04T03:19:20.499Z,99.90
2022-08-04T03:22:29.864Z,99.90
2022-08-04T03:25:29.579Z,99.90
2022-08-04T03:28:29.836Z,99.90
2022-08-04T03:31:23.417Z,99.90
2022-08-04T03:34:12.752Z,99.90
2022-08-04T03:37:18.379Z,99.90
2022-08-04T03:40:08.906Z,99.90
2022-08-04T03:43:04.210Z,99.90
2022-08-04T03:46:08.970Z,99.90
2022-08-04T03:49:04.912Z,99.90
2022-08-04T03:52:01.028Z,99.90
2022-08-04T03:54:59.557Z,99.90
2022-08-04T03:57:48.424Z,99.90
2022-08-04T04:00:19.814Z,99.90
2022-08-04T04:03:28.522Z,99.90
2022-08-04T04:06:24.227Z,99.90
2022-08-04T04:09:22.835Z,99.90
2022-08-04T04:12:15.667Z,99.90
2022-08-04T04:14:56.468Z,99.90
2022-08-04T04:18:03.123Z,99.90
2022-08-04T04:20:56.973Z,99.90
2022-08-04T04:23:35.903Z,99.90
2022-08-04T04:26:31.489Z,99.90
2022-08-04T04:29:29.435Z,99.90
2022-08-04T04:32:14.637Z,99.90
2022-08-04T04:34:54.233Z,99.90
2022-08-04T04:37:48.877Z,99.90
2022-08-04T04:40:39.450Z,99.90
2022-08-04T04:43:21.040Z,99.90
2022-08-04T04:45:56.077Z,99.90
2022-08-04T04:48:47.812Z,99.90
2022-08-04T04:51:21.742Z,99.90
2022-08-04T04:54:00.263Z,99.90
2022-08-04T04:56:35.095Z,99.90
2022-08-04T04:59:10.179Z,99.90
2022-08-04T05:01:50.111Z,99.90
2022-08-04T05:04:37.582Z,99.90
2022-08-04T05:07:33.455Z,99.90
2022-08-04T05:10:11.897Z,99.90
2022-08-04T05:14:31.240Z,99.90
2022-08-04T05:15:46.452Z,99.90
2022-08-04T05:18:22.265Z,99.90
2022-08-04T05:20:56.467Z,99.90
2022-08-04T05:23:28.635Z,99.90
2022-08-04T05:25:58.925Z,99.90
2022-08-04T05:28:30.273Z,99.90
2022-08-04T05:31:03.536Z,99.90
2022-08-04T05:33:35.886Z,99.90
2022-08-04T05:36:19.138Z,99.90
2022-08-04T05:38:59.935Z,99.90
2022-08-04T05:41:44.691Z,99.90
2022-08-04T05:44:15.448Z,99.90
2022-08-04T05:46:53.991Z,99.90
2022-08-04T05:49:23.738Z,99.90
2022-08-04T05:51:52.793Z,99.90
2022-08-04T05:54:22.820Z,99.90
2022-08-04T05:56:51.571Z,99.90
2022-08-04T05:59:20.684Z,99.90
2022-08-04T06:01:55.698Z,99.90
2022-08-04T06:04:27.499Z,99.90
2022-08-04T06:06:56.207Z,99.90
2022-08-04T06:09:24.140Z,99.90
2022-08-04T06:12:00.720Z,99.90
2022-08-04T06:14:36.702Z,99.90
2022-08-04T06:18:33.854Z,99.90
2022-08-04T06:20:19.187Z,99.90
2022-08-04T06:22:48.445Z,99.90
2022-08-04T06:25:20.576Z,99.90
2022-08-04T06:27:50.383Z,99.90
2022-08-04T06:30:19.538Z,99.90
2022-08-04T06:33:03.493Z,99.90
2022-08-04T06:35:33.848Z,99.90
2022-08-04T06:38:02.891Z,99.90
2022-08-04T06:40:33.606Z,99.90
2022-08-04T06:43:04.172Z,99.90
2022-08-04T06:45:34.420Z,99.90
2022-08-04T06:48:05.882Z,99.90
2022-08-04T06:51:32.822Z,99.90
2022-08-04T06:53:25.130Z,99.90
2022-08-04T06:55:53.413Z,99.90
2022-08-04T06:58:22.848Z,99.90
2022-08-04T07:00:51.640Z,99.90
2022-08-04T07:03:21.892Z,99.90
2022-08-04T07:05:50.669Z,99.90
2022-08-04T07:08:18.760Z,99.90
2022-08-04T07:10:47.429Z,99.90
2022-08-04T07:13:15.688Z,99.90
2022-08-04T07:15:46.049Z,99.90
2022-08-04T07:18:14.081Z,99.90
2022-08-04T07:20:44.589Z,99.90
2022-08-04T07:23:17.231Z,99.50
2022-08-04T07:26:00.677Z,98.90
2022-08-04T07:28:38.474Z,98.90
2022-08-04T07:31:07.139Z,98.30
2022-08-04T07:33:35.294Z,97.90
2022-08-04T07:36:10.333Z,97.30
2022-08-04T07:38:46.505Z,97.40
2022-08-04T07:41:38.011Z,97.30
2022-08-04T07:44:06.454Z,96.90
2022-08-04T07:46:34.255Z,97.10
2022-08-04T07:49:02.410Z,97.00
2022-08-04T07:51:32.224Z,96.90
2022-08-04T07:54:03.372Z,96.10
2022-08-04T07:56:31.638Z,95.40
2022-08-04T07:59:00.814Z,95.60
2022-08-04T08:01:29.383Z,95.50
2022-08-04T08:03:59.015Z,94.00
2022-08-04T08:06:33.097Z,94.30
2022-08-04T08:09:13.179Z,94.30
2022-08-04T08:12:38.044Z,94.20
2022-08-04T08:14:32.493Z,93.30
2022-08-04T08:17:01.550Z,93.40
2022-08-04T08:19:29.571Z,93.40
2022-08-04T08:21:59.489Z,93.40
2022-08-04T08:24:30.173Z,92.40
2022-08-04T08:26:58.150Z,93.20
2022-08-04T08:29:27.577Z,92.70
2022-08-04T08:32:01.439Z,91.80
2022-08-04T08:34:34.148Z,92.60
2022-08-04T08:37:10.623Z,91.70
2022-08-04T08:39:46.005Z,91.40
2022-08-04T08:42:35.600Z,91.20
2022-08-04T08:45:22.896Z,91.20
2022-08-04T08:48:18.705Z,90.60
2022-08-04T08:51:07.089Z,91.00
2022-08-04T08:53:53.942Z,91.00
2022-08-04T08:56:32.550Z,91.30
2022-08-04T08:59:38.499Z,91.10
2022-08-04T09:02:45.992Z,90.10
2022-08-04T09:05:29.970Z,90.30
2022-08-04T09:08:20.514Z,90.00
2022-08-04T09:10:51.133Z,90.50
2022-08-04T09:13:27.637Z,90.20
2022-08-04T09:16:00.723Z,90.20
2022-08-04T09:18:37.570Z,89.90
2022-08-04T09:21:12.631Z,90.00
2022-08-04T09:23:50.082Z,89.90
2022-08-04T09:26:24.024Z,89.00
2022-08-04T09:28:58.811Z,87.80
2022-08-04T09:31:51.606Z,89.00
2022-08-04T09:34:33.799Z,86.20
2022-08-04T09:37:13.332Z,86.80
2022-08-04T09:39:52.031Z,86.90
2022-08-04T09:42:26.619Z,87.20
2022-08-04T09:45:08.299Z,88.30
2022-08-04T09:47:48.602Z,86.80
2022-08-04T09:50:30.816Z,87.50
2022-08-04T09:53:07.418Z,87.00
2022-08-04T09:55:54.257Z,86.30
2022-08-04T09:58:40.124Z,84.60
2022-08-04T10:01:12.502Z,86.40
2022-08-04T10:03:44.624Z,86.10
2022-08-04T10:06:34.132Z,87.30
2022-08-04T10:09:14.863Z,85.50
2022-08-04T10:11:56.545Z,83.30
2022-08-04T10:14:38.840Z,84.70
2022-08-04T10:17:23.084Z,82.60
2022-08-04T10:20:01.738Z,84.30
2022-08-04T10:22:55.642Z,84.10
2022-08-04T10:26:03.122Z,84.50
2022-08-04T10:28:25.338Z,84.60
2022-08-04T10:30:58.638Z,83.10
2022-08-04T10:33:32.920Z,84.30
2022-08-04T10:36:04.360Z,83.20
2022-08-04T10:38:35.523Z,83.20
2022-08-04T10:41:07.253Z,83.80
2022-08-04T10:43:47.229Z,81.80
2022-08-04T10:46:21.347Z,82.10
2022-08-04T10:48:57.040Z,80.30
2022-08-04T10:51:31.020Z,81.50
2022-08-04T10:54:25.797Z,79.60
2022-08-04T10:56:57.301Z,80.90
2022-08-04T10:59:30.928Z,81.00
2022-08-04T11:02:06.213Z,80.60
2022-08-04T11:04:45.163Z,79.80
2022-08-04T11:07:14.603Z,81.50
2022-08-04T11:09:45.028Z,79.10
2022-08-04T11:12:17.759Z,82.10
2022-08-04T11:14:51.328Z,81.00
2022-08-04T11:17:23.682Z,79.10
2022-08-04T11:20:24.801Z,79.10
2022-08-04T11:22:59.451Z,80.60
2022-08-04T11:25:30.979Z,79.20
2022-08-04T11:28:10.142Z,80.50
2022-08-04T11:30:43.955Z,78.60
2022-08-04T11:33:21.665Z,79.70
2022-08-04T11:35:56.549Z,80.80
2022-08-04T11:38:32.792Z,77.80
2022-08-04T11:41:06.502Z,78.90
2022-08-04T11:43:56.218Z,79.80
2022-08-04T11:46:38.146Z,77.80
2022-08-04T11:49:09.490Z,78.30
2022-08-04T11:51:40.839Z,80.60
2022-08-04T11:54:14.071Z,80.40
2022-08-04T11:56:42.477Z,79.40
2022-08-04T11:59:10.654Z,80.10
2022-08-04T12:01:49.109Z,77.90
2022-08-04T12:04:26.888Z,78.00
2022-08-04T12:07:30.174Z,80.30
2022-08-04T12:10:00.543Z,80.20
2022-08-04T12:12:35.891Z,78.20
2022-08-04T12:15:15.466Z,79.90
2022-08-04T12:17:52.334Z,80.30
2022-08-04T12:20:35.552Z,80.10
2022-08-04T12:23:18.400Z,80.10
2022-08-04T12:25:54.653Z,80.70
2022-08-04T12:28:41.302Z,79.80
2022-08-04T12:31:23.499Z,79.90
2022-08-04T12:34:04.639Z,80.30
2022-08-04T12:36:39.131Z,77.90
2022-08-04T12:39:13.378Z,79.30
2022-08-04T12:41:46.497Z,80.00
2022-08-04T12:44:36.192Z,79.90
2022-08-04T12:47:27.631Z,79.00
2022-08-04T12:50:02.507Z,78.90
2022-08-04T12:53:00.267Z,78.80
2022-08-04T12:55:25.489Z,77.70
2022-08-04T12:57:54.643Z,77.80
2022-08-04T13:00:33.227Z,78.10
2022-08-04T13:03:10.476Z,79.30
2022-08-04T13:05:41.739Z,78.50
2022-08-04T13:08:11.290Z,76.10
2022-08-04T13:10:43.354Z,77.00
2022-08-04T13:13:17.971Z,76.50
2022-08-04T13:15:57.497Z,77.30
2022-08-04T13:18:30.174Z,75.30
2022-08-04T13:21:21.134Z,75.20
2022-08-04T13:24:10.162Z,75.10
2022-08-04T13:26:57.859Z,75.20
2022-08-04T13:29:59.269Z,76.60
2022-08-04T13:32:25.469Z,76.30
2022-08-04T13:34:55.800Z,77.10
2022-08-04T13:37:27.675Z,77.20
2022-08-04T13:39:59.498Z,77.70
2022-08-04T13:42:29.232Z,77.40
2022-08-04T13:44:59.529Z,76.00
2022-08-04T13:47:31.187Z,74.30
2022-08-04T13:50:12.887Z,74.80
2022-08-04T13:52:42.079Z,73.70
2022-08-04T13:55:19.279Z,75.10
2022-08-04T13:57:53.897Z,74.00
2022-08-04T14:00:29.432Z,74.60
2022-08-04T14:03:03.342Z,74.90
2022-08-04T14:05:59.685Z,74.60
2022-08-04T14:08:25.734Z,73.70
2022-08-04T14:10:58.159Z,73.00
2022-08-04T14:13:41.628Z,73.60
2022-08-04T14:16:18.124Z,73.00
2022-08-04T14:18:46.278Z,73.70
2022-08-04T14:21:15.687Z,72.80
2022-08-04T14:23:48.208Z,72.00
2022-08-04T14:26:18.894Z,72.80
2022-08-04T14:29:25.221Z,72.70
2022-08-04T14:31:35.978Z,72.20
2022-08-04T14:34:27.232Z,70.60
2022-08-04T14:37:16.405Z,71.60
2022-08-04T14:40:17.296Z,73.40
2022-08-04T14:42:43.300Z,74.20
2022-08-04T14:45:13.211Z,74.20
2022-08-04T14:47:52.667Z,72.10
2022-08-04T14:50:21.847Z,74.10
2022-08-04T14:52:49.729Z,72.30
2022-08-04T14:55:19.990Z,71.60
2022-08-04T14:58:35.424Z,72.90
2022-08-04T15:00:38.465Z,71.80
2022-08-04T15:03:08.548Z,73.00
2022-08-04T15:05:55.389Z,72.60
2022-08-04T15:08:29.062Z,72.20
2022-08-04T15:10:59.863Z,71.40
2022-08-04T15:13:27.800Z,72.20
2022-08-04T15:16:06.249Z,71.00
2022-08-04T15:18:37.200Z,71.70
2022-08-04T15:21:05.458Z,72.70
2022-08-04T15:23:39.206Z,72.40
2022-08-04T15:26:10.738Z,72.10
2022-08-04T15:28:41.119Z,73.30
2022-08-04T15:32:07.330Z,72.20
2022-08-04T15:34:00.019Z,72.70
2022-08-04T15:36:35.522Z,71.60
2022-08-04T15:39:09.871Z,70.80
2022-08-04T15:41:54.740Z,72.10
2022-08-04T15:44:46.992Z,71.60
2022-08-04T15:47:17.170Z,71.30
2022-08-04T15:49:45.891Z,71.30
2022-08-04T15:52:16.743Z,72.00
2022-08-04T15:54:52.543Z,71.80
2022-08-04T15:57:59.527Z,71.50
2022-08-04T16:00:27.566Z,72.00
2022-08-04T16:02:56.792Z,71.40
2022-08-04T16:05:39.213Z,71.20
2022-08-04T16:08:18.234Z,71.40
2022-08-04T16:10:50.487Z,68.80
2022-08-04T16:13:20.492Z,69.00
2022-08-04T16:15:51.078Z,69.40
2022-08-04T16:18:37.981Z,71.60
2022-08-04T16:21:08.510Z,71.20
2022-08-04T16:23:59.344Z,69.40
2022-08-04T16:26:54.496Z,71.10
2022-08-04T16:29:29.307Z,71.80
2022-08-04T16:32:18.791Z,72.30
2022-08-04T16:34:54.226Z,71.90
2022-08-04T16:37:25.738Z,70.30
2022-08-04T16:40:34.495Z,70.30
2022-08-04T16:43:06.529Z,69.50
2022-08-04T16:45:45.917Z,70.20
2022-08-04T16:48:14.972Z,71.50
2022-08-04T16:50:57.275Z,71.60
2022-08-04T16:54:02.714Z,72.40
2022-08-04T16:56:18.770Z,72.70
2022-08-04T16:58:53.751Z,73.40
2022-08-04T17:01:33.378Z,73.50
2022-08-04T17:04:05.906Z,73.50
2022-08-04T17:06:37.594Z,73.50
2022-08-04T17:09:07.430Z,73.90
2022-08-04T17:11:35.400Z,74.30
2022-08-04T17:14:05.785Z,74.50
2022-08-04T17:16:35.944Z,74.60
2022-08-04T17:19:03.983Z,74.80
2022-08-04T17:21:35.346Z,75.00
2022-08-04T17:24:15.233Z,75.00
2022-08-04T17:26:53.957Z,75.30
2022-08-04T17:29:43.158Z,75.30
2022-08-04T17:32:15.681Z,75.50
2022-08-04T17:34:48.734Z,75.80
2022-08-04T17:40:11.754Z,75.90
2022-08-04T17:42:45.376Z,75.40
2022-08-04T17:45:49.307Z,75.60
2022-08-04T17:48:08.913Z,75.80
2022-08-04T17:50:41.504Z,76.80
2022-08-04T17:53:13.094Z,77.10
2022-08-04T17:55:46.813Z,78.10
2022-08-04T17:58:24.133Z,78.20
2022-08-04T18:01:22.657Z,78.20
2022-08-04T18:03:51.890Z,78.40
2022-08-04T18:06:21.024Z,78.30
2022-08-04T18:08:57.371Z,78.00
2022-08-04T18:11:29.651Z,78.10
2022-08-04T18:14:09.626Z,78.90
2022-08-04T18:16:44.138Z,78.90
2022-08-04T18:19:15.790Z,77.80
2022-08-04T18:22:00.062Z,78.50
2022-08-04T18:24:35.359Z,79.30
2022-08-04T18:27:25.330Z,79.80
2022-08-04T18:30:34.492Z,79.80
2022-08-04T18:33:04.488Z,79.70
2022-08-04T18:38:22.446Z,79.50
2022-08-04T18:40:52.906Z,79.40
2022-08-04T18:43:28.265Z,79.70
2022-08-04T18:45:59.538Z,79.90
2022-08-04T18:48:36.795Z,80.30
2022-08-04T18:51:23.188Z,80.60
2022-08-04T18:53:55.386Z,80.70
2022-08-04T18:56:29.232Z,80.80
2022-08-04T18:59:03.111Z,81.60
2022-08-04T19:02:16.887Z,83.50
2022-08-04T19:04:33.786Z,84.40
2022-08-04T19:07:28.739Z,84.80
2022-08-04T19:09:53.910Z,85.30
2022-08-04T19:12:27.448Z,85.30
2022-08-04T19:15:08.056Z,85.90
2022-08-04T19:17:49.958Z,86.80
2022-08-04T19:20:25.417Z,87.00
2022-08-04T19:24:28.300Z,87.60
2022-08-04T19:26:01.613Z,88.20
2022-08-04T19:28:34.133Z,88.00
2022-08-04T19:31:05.060Z,88.30
2022-08-04T19:33:58.389Z,87.90
2022-08-04T19:36:27.949Z,88.20
2022-08-04T19:38:57.247Z,88.10
2022-08-04T19:41:26.753Z,87.90
2022-08-04T19:43:55.010Z,87.60
2022-08-04T19:46:25.694Z,87.70
2022-08-04T19:49:00.418Z,87.80
2022-08-04T19:51:29.764Z,88.30
2022-08-04T19:56:48.654Z,87.80
2022-08-04T19:59:16.523Z,88.10
2022-08-04T20:01:46.474Z,88.90
2022-08-04T20:04:14.647Z,89.00
2022-08-04T20:06:43.009Z,89.20
2022-08-04T20:09:24.860Z,89.60
2022-08-04T20:11:54.388Z,90.00
2022-08-04T20:14:32.184Z,90.20
2022-08-04T20:17:03.410Z,90.10
2022-08-04T20:19:38.500Z,90.50
2022-08-04T20:22:43.942Z,90.50
2022-08-04T20:25:01.110Z,90.60
2022-08-04T20:27:59.512Z,90.40
2022-08-04T20:30:28.976Z,90.70
2022-08-04T20:32:59.997Z,90.80
2022-08-04T20:35:27.832Z,90.70
2022-08-04T20:38:00.040Z,90.40
2022-08-04T20:40:29.028Z,89.80
2022-08-04T20:42:57.622Z,89.70
2022-08-04T20:45:57.214Z,89.40
2022-08-04T20:48:15.551Z,88.90
2022-08-04T20:50:46.097Z,89.10
2022-08-04T20:53:17.043Z,90.20
2022-08-04T20:58:33.730Z,90.50
2022-08-04T21:01:01.590Z,90.80
2022-08-04T21:04:00.876Z,91.00
2022-08-04T21:06:29.629Z,91.40
2022-08-04T21:08:58.073Z,92.00
2022-08-04T21:11:32.664Z,91.90
2022-08-04T21:14:01.110Z,92.00
2022-08-04T21:19:18.043Z,92.30
2022-08-04T21:21:53.467Z,92.10
2022-08-04T21:24:26.004Z,92.30
2022-08-04T21:26:56.749Z,92.20
2022-08-04T21:29:35.286Z,92.10
2022-08-04T21:32:05.655Z,92.30
2022-08-04T21:34:39.520Z,92.10
2022-08-04T21:37:09.949Z,92.40
2022-08-04T21:39:50.366Z,92.90
2022-08-04T21:42:42.637Z,92.80
2022-08-04T21:45:12.292Z,93.20
2022-08-04T21:50:30.684Z,93.30
2022-08-04T21:52:58.891Z,93.90
2022-08-04T21:56:04.706Z,93.80
2022-08-04T21:58:14.682Z,94.20
2022-08-04T22:00:44.801Z,94.70
2022-08-04T22:03:51.950Z,94.40
2022-08-04T22:06:05.864Z,94.30
2022-08-04T22:08:33.583Z,94.40
2022-08-04T22:11:02.019Z,94.70
2022-08-04T22:14:10.501Z,94.90
2022-08-04T22:16:17.516Z,94.60
2022-08-04T22:18:45.651Z,94.30
2022-08-04T22:21:16.147Z,94.40
2022-08-04T22:23:51.474Z,94.30
2022-08-04T22:26:26.720Z,94.50
2022-08-04T22:28:55.307Z,94.30
2022-08-04T22:31:24.885Z,94.20
2022-08-04T22:33:56.159Z,94.40
2022-08-04T22:36:25.351Z,94.40
2022-08-04T22:39:04.558Z,94.40
2022-08-04T22:42:03.060Z,94.30
2022-08-04T22:44:22.690Z,94.30
2022-08-04T22:46:51.585Z,94.60
2022-08-04T22:49:23.820Z,94.60
2022-08-04T22:52:10.020Z,94.80
2022-08-04T22:54:44.837Z,94.70
2022-08-04T22:57:13.765Z,94.50
2022-08-04T22:59:43.381Z,94.50
2022-08-04T23:02:11.432Z,94.70
2022-08-04T23:04:42.612Z,94.90
2022-08-04T23:07:13.483Z,95.10
2022-08-04T23:09:50.449Z,94.70
2022-08-04T23:12:27.241Z,94.80
2022-08-04T23:14:57.117Z,95.30
2022-08-04T23:17:25.433Z,95.40
2022-08-04T23:19:58.704Z,95.20
2022-08-04T23:22:41.188Z,95.30
2022-08-04T23:25:15.805Z,95.20
2022-08-04T23:27:50.998Z,95.20
2022-08-04T23:30:21.711Z,94.90
2022-08-04T23:32:52.833Z,94.90
2022-08-04T23:35:21.921Z,95.50
2022-08-04T23:37:56.624Z,95.50
2022-08-04T23:40:32.930Z,95.30
2022-08-04T23:43:02.079Z,95.20
2022-08-04T23:46:06.297Z,95.20
2022-08-04T23:48:20.870Z,95.30
2022-08-04T23:50:49.250Z,94.80
2022-08-04T23:53:22.547Z,95.00
2022-08-04T23:55:50.642Z,95.50
2022-08-04T23:58:20.947Z,95.70
